createdAt,value
2018-11-12T00:03:46.120Z,10.80
2018-11-12T00:08:26.094Z,10.80
2018-11-12T00:13:05.991Z,10.80
2018-11-12T00:17:45.922Z,10.90
2018-11-12T00:22:25.583Z,10.90
2018-11-12T00:27:05.479Z,10.90
2018-11-12T00:31:45.257Z,11.00
2018-11-12T00:36:25.168Z,11.00
2018-11-12T00:41:05.049Z,11.10
2018-11-12T00:45:45.137Z,11.10
2018-11-12T00:50:25.081Z,11.20
2018-11-12T00:55:05.512Z,11.30
2018-11-12T00:59:46.477Z,11.30
2018-11-12T01:04:26.798Z,11.20
2018-11-12T01:09:09.150Z,11.10
2018-11-12T01:13:48.748Z,11.00
2018-11-12T01:18:29.216Z,10.90
2018-11-12T01:23:09.177Z,10.90
2018-11-12T01:27:49.105Z,10.90
2018-11-12T01:32:29.143Z,10.90
2018-11-12T01:37:09.424Z,10.90
2018-11-12T01:41:51.061Z,10.90
2018-11-12T01:46:31.017Z,10.90
2018-11-12T01:51:11.106Z,10.90
2018-11-12T01:55:51.101Z,10.90
2018-11-12T02:00:31.073Z,10.90
2018-11-12T02:05:11.391Z,11.00
2018-11-12T02:09:51.633Z,11.00
2018-11-12T02:14:31.344Z,11.00
2018-11-12T02:19:11.473Z,11.10
2018-11-12T02:23:52.461Z,11.10
2018-11-12T02:28:32.921Z,11.10
2018-11-12T02:33:14.107Z,11.20
2018-11-12T02:37:53.845Z,11.20
2018-11-12T02:42:33.720Z,11.30
2018-11-12T02:47:13.617Z,11.30
2018-11-12T02:51:53.861Z,11.40
2018-11-12T02:56:34.910Z,11.50
2018-11-12T03:01:19.597Z,11.50
2018-11-12T03:05:59.408Z,11.60
2018-11-12T03:10:39.126Z,11.70
2018-11-12T03:15:19.885Z,11.70
2018-11-12T03:20:01.051Z,11.80
2018-11-12T03:24:41.636Z,11.80
2018-11-12T03:29:22.385Z,11.90
2018-11-12T03:34:03.185Z,12.00
2018-11-12T03:38:44.396Z,12.10
2018-11-12T03:43:25.581Z,12.10
2018-11-12T03:48:05.768Z,12.20
2018-11-12T03:52:46.149Z,12.30
2018-11-12T03:57:27.995Z,12.40
2018-11-12T04:02:08.240Z,12.50
2018-11-12T04:06:49.160Z,12.60
2018-11-12T04:11:29.705Z,12.80
2018-11-12T04:16:10.505Z,12.80
2018-11-12T04:20:50.427Z,12.90
2018-11-12T04:25:30.740Z,13.00
2018-11-12T04:30:13.676Z,13.10
2018-11-12T04:34:53.761Z,13.10
2018-11-12T04:39:34.406Z,13.20
2018-11-12T04:44:14.426Z,13.20
2018-11-12T04:48:54.412Z,13.30
2018-11-12T04:53:34.584Z,13.40
2018-11-12T04:58:15.598Z,13.40
2018-11-12T05:02:56.514Z,13.50
2018-11-12T05:07:36.521Z,13.60
2018-11-12T05:12:17.044Z,13.80
2018-11-12T05:16:57.000Z,13.90
2018-11-12T05:21:37.431Z,14.10
2018-11-12T05:26:18.197Z,14.10
2018-11-12T05:30:58.072Z,14.20
2018-11-12T05:35:38.182Z,14.10
2018-11-12T05:40:20.820Z,14.20
2018-11-12T05:45:01.732Z,14.20
2018-11-12T05:49:41.921Z,14.20
2018-11-12T05:54:22.129Z,14.30
2018-11-12T05:59:08.937Z,14.30
2018-11-12T06:03:49.636Z,14.40
2018-11-12T06:08:32.160Z,14.40
2018-11-12T06:13:12.109Z,14.40
2018-11-12T06:17:54.991Z,14.50
2018-11-12T06:22:35.178Z,14.50
2018-11-12T06:27:15.568Z,14.40
2018-11-12T06:31:57.664Z,14.40
2018-11-12T06:36:37.816Z,14.50
2018-11-12T06:41:19.578Z,14.50
2018-11-12T06:45:59.667Z,14.60
2018-11-12T06:50:40.144Z,14.70
2018-11-12T06:55:21.649Z,14.70
2018-11-12T07:00:02.998Z,14.70
2018-11-12T07:04:43.864Z,14.60
2018-11-12T07:09:23.808Z,14.60
2018-11-12T07:14:04.545Z,14.70
2018-11-12T07:18:45.464Z,14.80
2018-11-12T07:23:25.716Z,15.00
2018-11-12T07:28:05.802Z,15.10
2018-11-12T07:32:46.591Z,15.20
2018-11-12T07:37:26.337Z,15.20
2018-11-12T07:42:07.950Z,15.20
2018-11-12T07:46:47.984Z,15.10
2018-11-12T07:51:27.846Z,15.20
2018-11-12T07:56:07.870Z,15.30
2018-11-12T08:00:50.040Z,15.40
2018-11-12T08:05:30.925Z,15.50
2018-11-12T08:10:14.715Z,15.60
2018-11-12T08:14:55.697Z,15.70
2018-11-12T08:19:36.697Z,15.80
2018-11-12T08:24:18.087Z,15.80
2018-11-12T08:28:59.117Z,15.90
2018-11-12T08:33:38.841Z,15.90
2018-11-12T08:38:18.893Z,15.90
2018-11-12T08:42:59.603Z,16.00
2018-11-12T08:47:40.288Z,16.20
2018-11-12T08:52:20.591Z,16.20
2018-11-12T08:57:01.750Z,16.30
2018-11-12T09:01:41.722Z,16.40
2018-11-12T09:06:24.262Z,16.50
2018-11-12T09:11:04.137Z,16.50
2018-11-12T09:15:44.086Z,16.60
2018-11-12T09:20:25.362Z,16.60
2018-11-12T09:25:11.823Z,16.60
2018-11-12T09:29:53.389Z,16.60
2018-11-12T09:34:33.461Z,16.70
2018-11-12T09:39:15.277Z,16.80
2018-11-12T09:43:56.896Z,16.90
2018-11-12T09:48:37.548Z,16.90
2018-11-12T09:53:19.201Z,17.10
2018-11-12T09:58:04.165Z,17.20
2018-11-12T10:02:47.170Z,17.20
2018-11-12T10:07:28.675Z,17.30
2018-11-12T10:12:10.384Z,17.20
2018-11-12T10:16:52.238Z,17.20
2018-11-12T10:21:29.285Z,17.30
2018-11-12T10:26:10.108Z,17.20
2018-11-12T10:30:51.697Z,17.20
2018-11-12T10:35:31.593Z,17.20
2018-11-12T10:40:14.629Z,17.20
2018-11-12T10:44:54.728Z,17.30
2018-11-12T10:49:34.555Z,17.40
2018-11-12T10:54:15.622Z,17.60
2018-11-12T10:58:55.524Z,17.70
2018-11-12T11:03:40.614Z,17.80
2018-11-12T11:08:22.081Z,17.90
2018-11-12T11:13:03.185Z,17.90
2018-11-12T11:17:43.143Z,17.90
2018-11-12T11:22:23.570Z,18.10
2018-11-12T11:27:05.503Z,18.50
2018-11-12T11:31:48.664Z,19.00
2018-11-12T11:36:30.572Z,19.30
2018-11-12T11:41:12.024Z,19.40
2018-11-12T11:45:52.960Z,19.40
2018-11-12T11:50:35.290Z,19.30
2018-11-12T11:55:18.070Z,19.20
2018-11-12T11:59:59.884Z,19.20
2018-11-12T12:04:40.384Z,19.10
2018-11-12T12:09:22.979Z,19.00
2018-11-12T12:14:04.367Z,19.00
2018-11-12T12:18:45.117Z,19.00
2018-11-12T12:23:26.644Z,19.00
2018-11-12T12:28:07.209Z,19.10
2018-11-12T12:32:48.711Z,19.40
2018-11-12T12:37:28.493Z,19.50
2018-11-12T12:42:08.312Z,19.50
2018-11-12T12:46:48.444Z,19.50
2018-11-12T12:51:29.184Z,19.60
2018-11-12T12:56:09.404Z,19.70
2018-11-12T13:00:50.598Z,19.70
2018-11-12T13:05:31.424Z,19.60
2018-11-12T13:10:13.561Z,19.70
2018-11-12T13:14:54.112Z,19.80
2018-11-12T13:19:35.137Z,19.80
2018-11-12T13:24:15.179Z,19.90
2018-11-12T13:28:55.335Z,20.00
2018-11-12T13:33:35.213Z,20.00
2018-11-12T13:38:15.113Z,20.00
2018-11-12T13:42:58.819Z,19.90
2018-11-12T13:47:39.513Z,19.80
2018-11-12T13:52:19.172Z,19.70
2018-11-12T13:56:59.133Z,19.60
2018-11-12T14:01:39.387Z,19.40
2018-11-12T14:06:20.025Z,19.20
2018-11-12T14:11:00.144Z,19.00
2018-11-12T14:15:40.074Z,18.80
2018-11-12T14:20:21.603Z,18.80
2018-11-12T14:25:01.591Z,18.70
2018-11-12T14:29:41.517Z,18.60
2018-11-12T14:34:21.569Z,18.60
2018-11-12T14:39:02.102Z,18.50
2018-11-12T14:43:42.629Z,18.30
2018-11-12T14:48:22.552Z,17.90
2018-11-12T14:53:03.703Z,17.30
2018-11-12T14:57:43.597Z,16.80
2018-11-12T15:02:23.566Z,16.40
2018-11-12T15:07:03.810Z,16.20
2018-11-12T15:11:44.525Z,16.00
2018-11-12T15:16:25.196Z,15.80
2018-11-12T15:21:06.148Z,15.60
2018-11-12T15:25:46.945Z,15.40
2018-11-12T15:30:31.798Z,15.30
2018-11-12T15:35:13.730Z,15.20
2018-11-12T15:39:54.259Z,15.10
2018-11-12T15:44:35.837Z,15.00
2018-11-12T15:49:18.152Z,14.90
2018-11-12T15:54:00.317Z,14.90
2018-11-12T15:58:41.233Z,14.80
2018-11-12T16:03:22.347Z,14.70
2018-11-12T16:08:03.766Z,14.70
2018-11-12T16:12:43.873Z,14.60
2018-11-12T16:17:24.274Z,14.60
2018-11-12T16:22:04.726Z,14.50
2018-11-12T16:26:45.389Z,14.50
2018-11-12T16:31:26.749Z,14.50
2018-11-12T16:36:08.950Z,14.40
2018-11-12T16:40:49.573Z,14.40
2018-11-12T16:45:29.940Z,14.40
2018-11-12T16:50:12.096Z,14.40
2018-11-12T16:54:54.137Z,14.40
2018-11-12T16:59:36.488Z,14.40
2018-11-12T17:04:16.470Z,14.40
2018-11-12T17:08:57.446Z,14.40
2018-11-12T17:13:37.292Z,14.30
2018-11-12T17:18:17.693Z,14.30
2018-11-12T17:22:57.576Z,14.30
2018-11-12T17:27:37.581Z,14.20
2018-11-12T17:32:17.633Z,14.30
2018-11-12T17:36:57.911Z,14.30
2018-11-12T17:41:37.865Z,14.30
2018-11-12T17:46:17.828Z,14.30
2018-11-12T17:50:59.307Z,14.20
2018-11-12T17:55:39.068Z,14.20
2018-11-12T18:00:24.151Z,14.20
2018-11-12T18:05:04.305Z,14.20
2018-11-12T18:09:44.512Z,14.10
2018-11-12T18:14:24.237Z,14.10
2018-11-12T18:19:04.305Z,14.10
2018-11-12T18:23:44.233Z,14.10
2018-11-12T18:28:25.669Z,14.10
2018-11-12T18:33:06.497Z,14.10
2018-11-12T18:37:46.509Z,14.00
2018-11-12T18:42:27.501Z,14.00
2018-11-12T18:47:08.477Z,14.00
2018-11-12T18:51:49.023Z,14.00
2018-11-12T18:56:29.454Z,13.90
2018-11-12T19:01:09.448Z,13.90
2018-11-12T19:05:50.152Z,13.90
2018-11-12T19:10:32.579Z,13.90
2018-11-12T19:15:14.162Z,13.80
2018-11-12T19:19:54.565Z,13.80
2018-11-12T19:24:34.820Z,13.80
2018-11-12T19:29:14.877Z,13.70
2018-11-12T19:33:54.681Z,13.70
2018-11-12T19:38:34.500Z,13.70
2018-11-12T19:43:14.871Z,13.70
2018-11-12T19:47:55.857Z,13.60
2018-11-12T19:52:35.537Z,13.60
2018-11-12T19:57:15.397Z,13.60
2018-11-12T20:01:55.227Z,13.50
2018-11-12T20:13:24.276Z,13.50
2018-11-12T20:18:04.122Z,13.40
2018-11-12T20:22:44.906Z,13.40
2018-11-12T20:27:24.620Z,13.30
2018-11-12T20:32:05.561Z,13.30
2018-11-12T20:36:45.538Z,13.30
2018-11-12T20:41:25.305Z,13.20
2018-11-12T20:46:06.135Z,13.20
2018-11-12T20:50:45.927Z,13.30
2018-11-12T20:55:25.891Z,13.30
2018-11-12T21:00:07.970Z,13.20
2018-11-12T21:04:48.253Z,13.20
2018-11-12T21:09:28.270Z,13.20
2018-11-12T21:14:08.032Z,13.10
2018-11-12T21:18:47.901Z,13.10
2018-11-12T21:23:27.699Z,13.00
2018-11-12T21:28:08.469Z,12.90
2018-11-12T21:32:50.581Z,12.80
2018-11-12T21:37:32.425Z,12.80
2018-11-12T21:42:13.885Z,12.70
2018-11-12T21:46:55.183Z,12.70
2018-11-12T21:51:36.305Z,12.70
2018-11-12T21:56:16.853Z,12.70
2018-11-12T22:00:56.891Z,12.60
2018-11-12T22:05:37.380Z,12.60
2018-11-12T22:10:18.239Z,12.50
2018-11-12T22:14:58.001Z,12.40
2018-11-12T22:19:37.991Z,12.40
2018-11-12T22:24:18.460Z,12.30
2018-11-12T22:28:58.598Z,12.30
2018-11-12T22:33:38.341Z,12.20
2018-11-12T22:38:19.229Z,12.10
2018-11-12T22:42:58.917Z,12.10
2018-11-12T22:47:46.109Z,12.00
2018-11-12T22:52:26.672Z,12.00
2018-11-12T22:57:06.724Z,11.90
2018-11-12T23:01:46.627Z,11.90
2018-11-12T23:06:26.456Z,11.90
2018-11-12T23:11:07.265Z,12.00
2018-11-12T23:15:47.074Z,11.90
2018-11-12T23:20:28.482Z,11.90
2018-11-12T23:25:09.081Z,11.90
2018-11-12T23:29:49.678Z,11.90
2018-11-12T23:34:30.873Z,12.00
2018-11-12T23:39:10.957Z,12.00
2018-11-12T23:43:50.897Z,12.00
2018-11-12T23:48:30.628Z,12.00
2018-11-12T23:53:10.761Z,11.90
2018-11-12T23:57:51.469Z,11.90
